Time;durP1;ratioP1;P1;durP2;ratioP2;P2;SDS_P1;SDS_P2;PMS_P1;PMS_P2;Temp;Humidity;BMP_temperature;BMP_pressure;BME280_temperature;BME280_humidity;BME280_pressure;Samples;Min_cycle;Max_cycle;Signal;HPM_P1;HPM_P2
2022/12/30 00:00:22;;;;;;;7.78;1.08;;;9.50;99.90;;;;;;5114579;28;20027;-72
2022/12/30 00:02:48;;;;;;;2.72;0.60;;;9.50;99.90;;;;;;5095689;28;20384;-73
2022/12/30 00:05:13;;;;;;;5.40;0.70;;;9.50;99.90;;;;;;5095651;28;20024;-72
2022/12/30 00:07:39;;;;;;;3.97;0.82;;;9.40;99.90;;;;;;5096001;28;20457;-72
2022/12/30 00:10:05;;;;;;;3.20;1.00;;;9.40;99.90;;;;;;5095316;28;20764;-73
2022/12/30 00:35:15;;;;;;;5.65;1.15;;;9.40;99.90;;;;;;5113274;28;20491;-73
2022/12/30 00:37:40;;;;;;;5.72;0.70;;;9.40;99.90;;;;;;5112692;28;20028;-72
2022/12/30 00:40:06;;;;;;;2.78;0.55;;;9.40;99.90;;;;;;5094301;28;20180;-73
2022/12/30 00:45:16;;;;;;;2.47;0.70;;;9.50;99.90;;;;;;5112953;28;20031;-73
2022/12/30 00:47:43;;;;;;;1.42;0.68;;;9.50;99.90;;;;;;5094953;28;20036;-72
2022/12/30 00:58:21;;;;;;;1.92;0.60;;;9.30;99.90;;;;;;5116662;28;20082;-72
2022/12/30 01:00:48;;;;;;;2.22;0.95;;;9.30;99.90;;;;;;5117193;28;20078;-72
2022/12/30 01:03:13;;;;;;;3.15;0.60;;;9.20;99.90;;;;;;5116861;28;20020;-72
2022/12/30 01:05:39;;;;;;;4.88;0.73;;;9.20;99.90;;;;;;5116844;28;20024;-72
2022/12/30 01:08:05;;;;;;;1.45;0.63;;;9.20;99.90;;;;;;5098011;28;20449;-72
2022/12/30 01:10:31;;;;;;;4.05;0.90;;;9.10;99.90;;;;;;5098337;28;20376;-72
2022/12/30 01:12:56;;;;;;;1.85;0.73;;;9.10;99.90;;;;;;5116444;28;20027;-73
2022/12/30 01:15:22;;;;;;;3.25;1.02;;;9.00;99.90;;;;;;5116397;28;20024;-73
2022/12/30 01:17:48;;;;;;;3.45;0.82;;;9.00;99.90;;;;;;5098277;28;20482;-73
2022/12/30 01:20:14;;;;;;;2.55;0.57;;;9.00;99.90;;;;;;5098627;28;20027;-73
2022/12/30 01:22:40;;;;;;;2.42;0.80;;;9.00;99.90;;;;;;5098387;28;20045;-72
2022/12/30 01:25:06;;;;;;;1.90;0.70;;;8.90;99.90;;;;;;5097763;28;20102;-72
2022/12/30 01:27:32;;;;;;;3.95;0.60;;;8.90;99.90;;;;;;5098065;28;20023;-72
2022/12/30 01:29:58;;;;;;;3.00;0.70;;;8.80;99.90;;;;;;5097602;28;20054;-73
2022/12/30 01:32:24;;;;;;;5.93;0.80;;;8.80;99.90;;;;;;5116452;28;20027;-73
2022/12/30 01:34:54;;;;;;;3.80;0.80;;;8.70;99.90;;;;;;5097843;28;20093;-77
2022/12/30 01:37:20;;;;;;;5.03;0.75;;;8.70;99.90;;;;;;5116129;28;20085;-73
2022/12/30 01:39:46;;;;;;;1.15;0.57;;;8.60;99.90;;;;;;5116237;28;20479;-72
2022/12/30 01:42:24;;;;;;;2.65;0.80;;;8.60;99.90;;;;;;5097269;28;20023;-73
2022/12/30 01:44:49;;;;;;;3.33;0.80;;;8.50;99.90;;;;;;5098011;28;20024;-72
2022/12/30 01:47:17;;;;;;;4.40;1.02;;;8.50;99.90;;;;;;5096989;28;20118;-73
2022/12/30 01:49:46;;;;;;;7.28;0.80;;;8.50;99.90;;;;;;5115647;28;20032;-73
2022/12/30 01:52:16;;;;;;;4.68;1.08;;;8.50;99.90;;;;;;5115338;28;20055;-72
2022/12/30 01:54:41;;;;;;;6.10;1.00;;;8.40;99.90;;;;;;5097502;28;20379;-72
2022/12/30 01:57:08;;;;;;;3.83;0.70;;;8.40;99.90;;;;;;5115362;28;20485;-72
2022/12/30 01:59:35;;;;;;;6.68;0.82;;;8.40;99.90;;;;;;5115748;28;20110;-73
2022/12/30 02:02:01;;;;;;;3.15;0.80;;;8.40;99.90;;;;;;5115320;28;20031;-73
2022/12/30 02:04:29;;;;;;;1.83;0.65;;;8.30;99.90;;;;;;5097677;28;20034;-73
2022/12/30 02:06:59;;;;;;;3.10;1.00;;;8.30;99.90;;;;;;5096323;28;20035;-72
2022/12/30 02:09:29;;;;;;;3.88;0.95;;;8.30;99.90;;;;;;5115298;28;20388;-72
2022/12/30 02:11:56;;;;;;;3.78;0.63;;;8.30;99.90;;;;;;5096786;28;20019;-73
2022/12/30 02:14:23;;;;;;;2.53;0.63;;;8.20;99.90;;;;;;5097291;28;20024;-73
2022/12/30 02:17:03;;;;;;;3.65;0.90;;;8.20;99.90;;;;;;5115164;28;20135;-72
2022/12/30 02:20:01;;;;;;;4.45;0.95;;;8.20;99.90;;;;;;5097206;28;20031;-72
2022/12/30 02:22:51;;;;;;;2.65;0.60;;;8.20;99.90;;;;;;5115458;28;20024;-72
2022/12/30 02:25:51;;;;;;;5.18;0.90;;;8.20;99.90;;;;;;5096262;28;20111;-73
2022/12/30 02:29:06;;;;;;;4.63;0.65;;;8.20;99.90;;;;;;5096549;28;20031;-73
2022/12/30 02:31:48;;;;;;;4.68;0.77;;;8.20;99.90;;;;;;5114050;28;20085;-72
2022/12/30 02:34:35;;;;;;;2.50;0.60;;;8.20;99.90;;;;;;5114420;28;20042;-72
2022/12/30 02:37:03;;;;;;;3.22;0.88;;;8.20;99.90;;;;;;5096301;28;20031;-73
2022/12/30 02:39:37;;;;;;;5.70;0.90;;;8.20;99.90;;;;;;5096966;28;20020;-72
2022/12/30 02:45:04;;;;;;;2.85;0.95;;;8.20;99.90;;;;;;5115094;28;20039;-72
2022/12/30 02:47:38;;;;;;;4.32;1.02;;;8.10;99.90;;;;;;5115392;28;20067;-73
2022/12/30 02:52:56;;;;;;;3.28;0.73;;;8.20;99.90;;;;;;5114823;28;20038;-72
2022/12/30 02:55:22;;;;;;;3.65;0.80;;;8.20;99.90;;;;;;5096445;28;20027;-73
2022/12/30 02:57:47;;;;;;;2.63;0.90;;;8.10;99.90;;;;;;5096359;28;20088;-72
2022/12/30 03:06:28;;;;;;;1.98;0.65;;;8.10;99.90;;;;;;5113834;28;20081;-72
2022/12/30 03:09:18;;;;;;;2.00;1.03;;;8.10;99.90;;;;;;5114587;28;20074;-73
2022/12/30 03:11:55;;;;;;;3.05;1.00;;;8.10;99.90;;;;;;5096135;28;20275;-73
2022/12/30 03:14:30;;;;;;;1.73;1.10;;;8.10;99.90;;;;;;5096252;28;20046;-73
2022/12/30 03:17:08;;;;;;;1.92;0.80;;;8.20;99.90;;;;;;5094846;28;20128;-78
2022/12/30 03:19:39;;;;;;;0.68;0.68;;;8.20;99.90;;;;;;5096121;28;20032;-73
2022/12/30 03:27:02;;;;;;;2.35;1.00;;;8.20;99.90;;;;;;5095597;28;20020;-73
2022/12/30 03:27:40;;;;;;;2.53;0.90;;;8.20;99.90;;;;;;5114217;28;20061;-72
2022/12/30 03:30:06;;;;;;;2.17;0.90;;;8.10;99.90;;;;;;5113532;28;20115;-72
2022/12/30 03:32:32;;;;;;;1.50;0.88;;;8.10;99.90;;;;;;5113823;28;20032;-73
2022/12/30 03:34:58;;;;;;;1.92;0.88;;;8.10;99.90;;;;;;5095202;28;20483;-73
2022/12/30 03:37:29;;;;;;;1.52;0.63;;;8.10;99.90;;;;;;5095593;28;20487;-72
2022/12/30 03:40:02;;;;;;;2.72;0.80;;;8.10;99.90;;;;;;5113739;28;20031;-73
2022/12/30 03:42:30;;;;;;;1.40;0.60;;;8.00;99.90;;;;;;5095666;28;20141;-72
2022/12/30 03:44:56;;;;;;;0.50;0.50;;;8.10;99.90;;;;;;5095182;28;20034;-73
2022/12/30 03:47:22;;;;;;;3.25;1.00;;;8.00;99.90;;;;;;5094864;28;20027;-72
2022/12/30 03:49:48;;;;;;;1.38;0.80;;;8.00;99.90;;;;;;5095419;28;20031;-72
2022/12/30 03:52:15;;;;;;;2.63;0.73;;;8.00;99.90;;;;;;5094974;28;20055;-73
2022/12/30 03:54:42;;;;;;;1.98;0.70;;;8.00;99.90;;;;;;5113646;28;20057;-73
2022/12/30 03:57:08;;;;;;;1.63;0.75;;;8.00;99.90;;;;;;5094817;28;20504;-73
2022/12/30 03:59:33;;;;;;;1.95;0.60;;;8.00;99.90;;;;;;5095307;28;20031;-72
2022/12/30 04:01:59;;;;;;;0.73;0.60;;;7.90;99.90;;;;;;5094810;28;20024;-74
2022/12/30 04:04:26;;;;;;;0.90;0.60;;;7.90;99.90;;;;;;5095255;28;20489;-73
2022/12/30 04:06:51;;;;;;;1.27;0.57;;;7.90;99.90;;;;;;5113355;28;20035;-73
2022/12/30 04:09:17;;;;;;;1.83;0.50;;;7.90;99.90;;;;;;5094692;28;20028;-73
2022/12/30 04:11:43;;;;;;;1.88;0.77;;;7.90;99.90;;;;;;5095190;28;20110;-73
2022/12/30 04:14:10;;;;;;;0.80;0.63;;;7.80;99.90;;;;;;5094707;28;20026;-72
2022/12/30 04:16:35;;;;;;;2.20;0.52;;;7.90;99.90;;;;;;5112968;28;20071;-72
2022/12/30 04:19:01;;;;;;;1.17;0.80;;;7.80;99.90;;;;;;5094640;28;20059;-73
2022/12/30 04:21:26;;;;;;;0.75;0.45;;;7.80;99.90;;;;;;5094980;28;20423;-73
2022/12/30 04:23:52;;;;;;;2.25;0.60;;;7.80;99.90;;;;;;5113455;28;20062;-73
2022/12/30 04:26:17;;;;;;;1.60;0.60;;;7.80;99.90;;;;;;5112665;28;20461;-73
2022/12/30 04:28:43;;;;;;;2.63;0.68;;;7.70;99.90;;;;;;5112944;28;20362;-73
2022/12/30 04:31:08;;;;;;;2.22;0.52;;;7.60;99.90;;;;;;5094515;28;20026;-73
2022/12/30 04:33:34;;;;;;;3.25;0.80;;;7.60;99.90;;;;;;5113081;28;20028;-73
2022/12/30 04:36:00;;;;;;;2.10;0.90;;;7.60;99.90;;;;;;5094807;28;20374;-73
2022/12/30 04:38:26;;;;;;;1.95;0.80;;;7.60;99.90;;;;;;5112976;28;20145;-73
2022/12/30 04:40:52;;;;;;;1.27;0.40;;;7.50;99.90;;;;;;5113100;28;20115;-73
2022/12/30 04:43:18;;;;;;;3.33;0.63;;;7.50;99.90;;;;;;5094374;28;20028;-73
2022/12/30 04:45:44;;;;;;;1.40;0.65;;;7.50;99.90;;;;;;5094693;28;20031;-73
2022/12/30 04:48:10;;;;;;;2.40;0.60;;;7.40;99.90;;;;;;5093942;28;20472;-73
2022/12/30 04:50:35;;;;;;;1.73;0.52;;;7.50;99.90;;;;;;5112960;28;20019;-73
2022/12/30 04:53:01;;;;;;;1.65;0.60;;;7.50;99.90;;;;;;5094687;28;20358;-78
2022/12/30 04:55:27;;;;;;;1.33;0.60;;;7.50;99.90;;;;;;5094975;28;20038;-72
2022/12/30 04:57:53;;;;;;;1.40;0.40;;;7.60;99.90;;;;;;5094633;28;20341;-72
2022/12/30 05:00:18;;;;;;;3.38;0.60;;;7.50;99.90;;;;;;5094222;28;20031;-73
2022/12/30 05:02:44;;;;;;;2.17;0.60;;;7.50;99.90;;;;;;5112607;28;20472;-72
2022/12/30 05:05:09;;;;;;;3.55;0.80;;;7.50;99.90;;;;;;5094139;28;20486;-72
2022/12/30 05:07:35;;;;;;;2.60;1.15;;;7.40;99.90;;;;;;5094565;28;20027;-72
2022/12/30 05:10:01;;;;;;;0.60;0.50;;;7.40;99.90;;;;;;5094556;28;20051;-72
2022/12/30 05:12:26;;;;;;;0.57;0.40;;;7.40;99.90;;;;;;5112318;28;20093;-72
2022/12/30 05:14:52;;;;;;;1.02;0.70;;;7.40;99.90;;;;;;5094560;28;20027;-72
2022/12/30 05:17:17;;;;;;;2.35;0.60;;;7.40;99.90;;;;;;5112086;28;20052;-73
2022/12/30 05:19:43;;;;;;;0.90;0.50;;;7.40;99.90;;;;;;5094601;28;20533;-72
2022/12/30 05:22:08;;;;;;;1.90;0.52;;;7.40;99.90;;;;;;5094009;28;20020;-73
2022/12/30 05:27:18;;;;;;;0.73;0.55;;;7.30;99.90;;;;;;5112192;28;20042;-73
2022/12/30 05:29:44;;;;;;;1.60;0.70;;;7.30;99.90;;;;;;5094336;28;20020;-72
2022/12/30 05:32:09;;;;;;;1.20;0.60;;;7.30;99.90;;;;;;5093851;28;20030;-72
2022/12/30 05:34:35;;;;;;;3.38;0.90;;;7.30;99.90;;;;;;5112571;28;20449;-73
2022/12/30 05:37:01;;;;;;;1.73;0.73;;;7.30;99.90;;;;;;5094334;28;20519;-73
2022/12/30 05:39:26;;;;;;;1.48;0.70;;;7.20;99.90;;;;;;5112024;28;20052;-72
2022/12/30 05:41:52;;;;;;;1.25;0.70;;;7.20;99.90;;;;;;5097009;28;20019;-72
2022/12/30 05:44:17;;;;;;;2.35;0.73;;;7.20;99.90;;;;;;5097449;28;20038;-73
2022/12/30 05:46:43;;;;;;;1.00;0.70;;;7.20;99.90;;;;;;5115826;28;20076;-73
2022/12/30 05:49:08;;;;;;;0.77;0.70;;;7.20;99.90;;;;;;5097253;28;20024;-73
2022/12/30 05:51:34;;;;;;;2.95;0.82;;;7.10;99.90;;;;;;5097754;28;20027;-72
2022/12/30 05:53:59;;;;;;;2.22;0.77;;;7.00;99.90;;;;;;5115910;28;20031;-73
2022/12/30 05:56:25;;;;;;;2.65;0.93;;;7.00;99.90;;;;;;5097201;28;20031;-72
2022/12/30 05:58:51;;;;;;;1.70;0.75;;;6.90;99.90;;;;;;5097590;28;20050;-72
2022/12/30 06:01:16;;;;;;;1.20;0.60;;;6.80;99.90;;;;;;5097107;28;20475;-72
2022/12/30 06:03:42;;;;;;;2.07;0.63;;;6.70;99.90;;;;;;5097562;28;20476;-72
2022/12/30 06:06:09;;;;;;;1.27;0.53;;;6.60;99.90;;;;;;5096893;28;20030;-74
2022/12/30 06:08:36;;;;;;;1.60;0.90;;;6.60;99.90;;;;;;5097004;28;20041;-73
2022/12/30 06:11:01;;;;;;;1.17;0.67;;;6.50;99.90;;;;;;5115836;28;20024;-72
2022/12/30 06:13:27;;;;;;;0.63;0.50;;;6.40;99.90;;;;;;5096815;28;20024;-73
2022/12/30 06:15:53;;;;;;;2.67;0.60;;;6.30;99.90;;;;;;5115247;28;20044;-73
2022/12/30 06:18:18;;;;;;;4.80;0.97;;;6.30;99.90;;;;;;5115005;28;20045;-73
2022/12/30 06:20:45;;;;;;;1.67;0.80;;;6.30;99.90;;;;;;5115444;28;20027;-72
2022/12/30 06:23:11;;;;;;;1.73;0.83;;;6.30;99.90;;;;;;5096614;28;20460;-73
2022/12/30 06:25:36;;;;;;;4.03;0.90;;;6.30;99.90;;;;;;5097098;28;20073;-72
2022/12/30 06:28:02;;;;;;;0.63;0.60;;;6.30;99.90;;;;;;5097092;28;20118;-72
2022/12/30 06:30:28;;;;;;;2.33;0.80;;;6.20;99.90;;;;;;5096439;28;20032;-72
2022/12/30 06:32:54;;;;;;;2.10;0.90;;;6.20;99.90;;;;;;5096889;28;20020;-72
2022/12/30 06:35:20;;;;;;;2.03;0.70;;;6.20;99.90;;;;;;5096336;28;20430;-72
2022/12/30 06:37:45;;;;;;;1.53;0.70;;;6.10;99.90;;;;;;5114999;28;20032;-73
2022/12/30 06:40:11;;;;;;;1.43;0.63;;;6.00;99.90;;;;;;5114667;28;20483;-73
2022/12/30 06:42:37;;;;;;;2.43;0.70;;;6.00;99.90;;;;;;5115049;28;20121;-72
2022/12/30 06:45:03;;;;;;;3.03;0.80;;;5.90;99.90;;;;;;5096648;28;20030;-72
2022/12/30 06:47:29;;;;;;;1.73;0.70;;;5.90;99.90;;;;;;5096085;28;20499;-72
2022/12/30 06:49:54;;;;;;;2.93;1.03;;;5.90;99.90;;;;;;5114808;28;20024;-72
2022/12/30 06:52:20;;;;;;;1.70;0.60;;;5.90;99.90;;;;;;5113876;28;20027;-72
2022/12/30 06:54:45;;;;;;;2.30;0.73;;;5.90;99.90;;;;;;5096530;28;20027;-72
2022/12/30 06:57:11;;;;;;;4.10;0.90;;;5.90;99.90;;;;;;5095886;28;20069;-73
2022/12/30 06:59:36;;;;;;;3.67;0.70;;;5.90;99.90;;;;;;5114673;28;20445;-72
2022/12/30 07:02:02;;;;;;;1.33;0.70;;;5.90;99.90;;;;;;5096397;28;20023;-72
2022/12/30 07:04:28;;;;;;;0.93;0.63;;;5.80;99.90;;;;;;5095843;28;20028;-72
2022/12/30 07:06:53;;;;;;;5.87;1.20;;;5.80;99.90;;;;;;5095897;28;20119;-73
2022/12/30 07:09:19;;;;;;;4.43;0.83;;;5.70;99.90;;;;;;5095671;28;20069;-72
2022/12/30 07:11:45;;;;;;;3.43;0.80;;;5.70;99.90;;;;;;5096216;28;20031;-72
2022/12/30 07:14:10;;;;;;;3.80;1.10;;;5.60;99.90;;;;;;5114146;28;20078;-76
2022/12/30 07:16:36;;;;;;;4.37;0.80;;;5.60;99.90;;;;;;5114007;28;20499;-73
2022/12/30 07:19:01;;;;;;;3.87;0.80;;;5.60;99.90;;;;;;5095955;28;20495;-73
2022/12/30 07:21:27;;;;;;;3.10;0.90;;;5.60;99.90;;;;;;5113658;28;20066;-72
2022/12/30 07:23:53;;;;;;;1.47;0.90;;;5.50;99.90;;;;;;5114217;28;20073;-72
2022/12/30 07:26:19;;;;;;;4.97;0.80;;;5.50;99.90;;;;;;5095320;28;20035;-73
2022/12/30 07:28:44;;;;;;;1.97;0.67;;;5.40;99.90;;;;;;5095840;28;20430;-72
2022/12/30 07:31:10;;;;;;;2.40;0.70;;;5.40;99.90;;;;;;5113795;28;20024;-72
2022/12/30 07:33:35;;;;;;;2.47;0.90;;;5.40;99.90;;;;;;5095284;28;20024;-72
2022/12/30 07:36:01;;;;;;;1.87;0.70;;;5.40;99.90;;;;;;5095582;28;20410;-73
2022/12/30 07:38:26;;;;;;;2.33;0.90;;;5.40;99.90;;;;;;5095171;28;20031;-72
2022/12/30 07:40:52;;;;;;;3.27;1.13;;;5.40;99.90;;;;;;5113887;28;20054;-72
2022/12/30 07:43:18;;;;;;;4.23;1.83;;;5.50;99.90;;;;;;5095105;28;20445;-73
2022/12/30 07:45:43;;;;;;;3.07;1.10;;;5.50;99.90;;;;;;5095757;28;20034;-72
2022/12/30 07:48:09;;;;;;;4.03;0.97;;;5.50;99.90;;;;;;5095499;28;20031;-72
2022/12/30 07:50:37;;;;;;;3.37;1.20;;;5.40;99.90;;;;;;5094959;28;20058;-73
2022/12/30 07:53:02;;;;;;;2.13;1.00;;;5.40;99.90;;;;;;5095727;28;20031;-72
2022/12/30 07:55:28;;;;;;;2.67;0.90;;;5.40;99.90;;;;;;5094894;28;20457;-73
2022/12/30 07:57:54;;;;;;;2.57;1.00;;;5.50;99.90;;;;;;5095322;28;20089;-72
2022/12/30 08:00:19;;;;;;;5.27;1.00;;;5.50;99.90;;;;;;5113023;28;20456;-73
2022/12/30 08:02:45;;;;;;;3.40;0.80;;;5.50;99.90;;;;;;5095246;28;20223;-72
2022/12/30 08:05:10;;;;;;;3.83;0.90;;;5.50;99.90;;;;;;5094350;28;20027;-73
2022/12/30 08:07:36;;;;;;;2.23;1.03;;;5.50;99.90;;;;;;5094449;28;20027;-73
2022/12/30 08:10:03;;;;;;;3.07;0.90;;;5.60;99.90;;;;;;5095120;28;20047;-72
2022/12/30 08:12:28;;;;;;;2.67;0.80;;;5.60;99.90;;;;;;5094714;28;20031;-72
2022/12/30 08:14:54;;;;;;;2.67;0.97;;;5.60;99.90;;;;;;5095286;28;20495;-73
2022/12/30 08:17:20;;;;;;;2.23;0.80;;;5.60;99.90;;;;;;5090907;28;20130;-73
2022/12/30 08:19:45;;;;;;;1.83;0.70;;;5.70;99.90;;;;;;5091841;28;20397;-73
2022/12/30 08:22:11;;;;;;;2.87;1.00;;;5.70;99.90;;;;;;5091686;28;20030;-73
2022/12/30 08:24:36;;;;;;;4.60;1.00;;;5.70;99.90;;;;;;5091051;28;20081;-73
2022/12/30 08:27:02;;;;;;;2.20;0.67;;;5.70;99.90;;;;;;5091736;28;20025;-73
2022/12/30 08:29:28;;;;;;;2.40;0.83;;;5.70;99.90;;;;;;5090850;28;20032;-73
2022/12/30 08:31:56;;;;;;;2.33;1.03;;;5.70;99.90;;;;;;5091620;28;20035;-73
2022/12/30 08:34:23;;;;;;;3.17;1.37;;;5.70;99.90;;;;;;5091082;28;20487;-73
2022/12/30 08:36:49;;;;;;;3.20;1.20;;;5.80;99.90;;;;;;5091465;28;20028;-73
2022/12/30 08:39:15;;;;;;;2.17;0.80;;;5.80;99.90;;;;;;5091496;28;20020;-73
2022/12/30 08:41:43;;;;;;;1.97;0.90;;;5.80;99.90;;;;;;5091582;28;20050;-73
2022/12/30 08:44:10;;;;;;;3.40;1.10;;;5.80;99.90;;;;;;5091458;28;20453;-73
2022/12/30 08:46:38;;;;;;;5.23;1.67;;;5.80;99.90;;;;;;5092484;28;20318;-73
2022/12/30 08:49:05;;;;;;;4.20;0.93;;;5.90;99.90;;;;;;5091411;28;20049;-73
2022/12/30 08:51:31;;;;;;;2.47;1.10;;;5.90;99.90;;;;;;5091070;28;20025;-73
2022/12/30 08:53:57;;;;;;;4.03;1.13;;;6.00;99.90;;;;;;5092686;28;20404;-73
2022/12/30 08:56:28;;;;;;;2.07;1.00;;;6.00;99.90;;;;;;5090905;28;20035;-73
2022/12/30 08:58:55;;;;;;;2.35;0.90;;;6.10;99.90;;;;;;5091512;28;20032;-72
2022/12/30 09:01:40;;;;;;;6.27;1.10;;;6.20;99.90;;;;;;5091726;28;20457;-74
2022/12/30 09:04:07;;;;;;;4.10;0.90;;;6.20;99.90;;;;;;5091546;28;20028;-73
2022/12/30 09:06:35;;;;;;;1.53;0.80;;;6.30;99.90;;;;;;5090807;28;20031;-73
2022/12/30 09:09:02;;;;;;;1.70;1.00;;;6.40;99.90;;;;;;5091209;28;20028;-73
2022/12/30 09:11:30;;;;;;;2.90;1.07;;;6.40;99.90;;;;;;5092229;28;20024;-72
2022/12/30 09:13:56;;;;;;;3.17;1.00;;;6.40;99.90;;;;;;5091111;28;20030;-73
2022/12/30 09:16:23;;;;;;;2.17;1.60;;;6.40;99.90;;;;;;5102412;28;20039;-73
2022/12/30 09:18:49;;;;;;;2.50;1.23;;;6.50;99.90;;;;;;5098022;28;20073;-72
2022/12/30 09:21:15;;;;;;;2.70;0.90;;;6.50;99.90;;;;;;5098396;28;20114;-72
2022/12/30 09:23:41;;;;;;;2.03;1.10;;;6.60;99.90;;;;;;5097685;28;20058;-72
2022/12/30 09:26:08;;;;;;;3.43;1.20;;;6.60;99.90;;;;;;5116272;28;20027;-73
2022/12/30 09:28:35;;;;;;;3.20;1.23;;;6.60;99.90;;;;;;5115993;28;20110;-72
2022/12/30 09:31:00;;;;;;;2.70;1.00;;;6.80;99.90;;;;;;5098192;28;20035;-72
2022/12/30 09:33:26;;;;;;;3.33;1.00;;;6.70;99.90;;;;;;5097742;28;20579;-73
2022/12/30 09:35:51;;;;;;;4.60;1.00;;;6.80;99.90;;;;;;5097988;28;20460;-73
2022/12/30 09:38:17;;;;;;;3.57;0.97;;;6.80;99.90;;;;;;5097968;28;20044;-73
2022/12/30 09:41:06;;;;;;;6.00;1.40;;;6.80;99.90;;;;;;5116025;28;20058;-72
2022/12/30 09:44:02;;;;;;;1.20;0.70;;;6.90;99.90;;;;;;5115463;28;20027;-73
2022/12/30 09:46:43;;;;;;;1.67;0.87;;;6.90;99.90;;;;;;5115224;28;20031;-73
2022/12/30 09:49:36;;;;;;;2.37;1.07;;;7.00;99.90;;;;;;5116280;28;20039;-73
2022/12/30 09:52:23;;;;;;;4.00;0.90;;;7.10;99.90;;;;;;5115791;28;20027;-72
2022/12/30 09:54:53;;;;;;;3.83;0.90;;;7.20;99.90;;;;;;5080997;28;20031;-72
2022/12/30 09:57:30;;;;;;;5.90;1.10;;;7.20;99.90;;;;;;5097583;28;20063;-72
2022/12/30 10:00:03;;;;;;;1.25;0.70;;;7.30;99.90;;;;;;5097836;28;20441;-73
2022/12/30 10:02:41;;;;;;;4.13;1.05;;;7.30;99.90;;;;;;5097160;28;20034;-73
2022/12/30 10:05:12;;;;;;;1.92;1.13;;;7.40;99.90;;;;;;5097713;28;20030;-72
2022/12/30 10:07:58;;;;;;;2.30;1.70;;;7.40;99.90;;;;;;5096886;28;20419;-73
2022/12/30 10:10:33;;;;;;;1.90;0.80;;;7.50;99.90;;;;;;5114928;28;20376;-73
2022/12/30 10:13:24;;;;;;;6.30;0.80;;;7.60;99.90;;;;;;5097379;28;20422;-73
2022/12/30 10:16:02;;;;;;;3.00;1.00;;;7.70;99.90;;;;;;5096926;28;20046;-73
2022/12/30 10:18:49;;;;;;;3.60;0.70;;;7.80;99.90;;;;;;5096789;28;20066;-73
2022/12/30 10:21:54;;;;;;;2.50;0.65;;;7.90;99.90;;;;;;5096756;28;20023;-74
2022/12/30 10:24:37;;;;;;;1.60;0.80;;;7.90;99.90;;;;;;5097213;28;20376;-73
2022/12/30 10:27:17;;;;;;;2.40;1.00;;;8.10;99.90;;;;;;5096596;28;20026;-73
2022/12/30 10:29:43;;;;;;;3.20;0.90;;;8.10;99.90;;;;;;5096599;28;20023;-73
2022/12/30 10:32:17;;;;;;;3.30;0.93;;;8.20;99.90;;;;;;5096978;28;20467;-73
2022/12/30 10:34:44;;;;;;;1.55;0.82;;;8.20;99.90;;;;;;5096171;28;20053;-73
2022/12/30 10:37:34;;;;;;;4.22;2.22;;;8.30;99.90;;;;;;5096973;28;20501;-73
2022/12/30 10:40:07;;;;;;;3.83;1.83;;;8.30;99.90;;;;;;5084532;28;20035;-73
2022/12/30 10:42:55;;;;;;;3.88;1.55;;;8.40;99.90;;;;;;5096335;28;20020;-73
2022/12/30 10:45:44;;;;;;;2.20;0.90;;;8.40;99.90;;;;;;5114637;28;20027;-73
2022/12/30 10:48:24;;;;;;;1.17;0.73;;;8.50;99.90;;;;;;5096804;28;20035;-73
2022/12/30 10:50:49;;;;;;;1.65;0.85;;;8.60;99.90;;;;;;5114949;28;20027;-73
2022/12/30 10:53:21;;;;;;;1.42;0.80;;;8.60;99.90;;;;;;5096506;28;20035;-73
2022/12/30 10:55:51;;;;;;;4.55;0.80;;;8.70;99.90;;;;;;5095920;28;20110;-73
2022/12/30 10:58:33;;;;;;;3.13;1.20;;;8.70;99.90;;;;;;5096187;28;20043;-73
2022/12/30 11:01:00;;;;;;;2.47;0.90;;;8.80;99.90;;;;;;5096365;28;20034;-73
2022/12/30 11:03:31;;;;;;;3.53;1.60;;;8.80;99.90;;;;;;5095952;28;20582;-73
2022/12/30 11:06:21;;;;;;;1.67;0.70;;;8.90;99.90;;;;;;5096465;28;20027;-73
2022/12/30 11:08:47;;;;;;;1.70;0.88;;;9.00;99.90;;;;;;5095724;28;20036;-73
2022/12/30 11:11:12;;;;;;;2.10;0.98;;;9.00;99.90;;;;;;5096222;28;20024;-73
2022/12/30 11:16:32;;;;;;;3.78;1.45;;;9.00;99.90;;;;;;5114083;28;20073;-73
2022/12/30 11:19:02;;;;;;;3.33;1.02;;;9.10;99.90;;;;;;5096080;28;20035;-73
2022/12/30 11:21:33;;;;;;;2.80;1.05;;;9.20;99.90;;;;;;5095574;28;20101;-73
2022/12/30 11:24:02;;;;;;;1.42;0.98;;;9.30;99.90;;;;;;5096065;28;20027;-73
2022/12/30 11:26:30;;;;;;;1.35;0.80;;;9.30;99.90;;;;;;5095262;28;20118;-74
2022/12/30 11:28:58;;;;;;;2.55;1.10;;;9.40;99.90;;;;;;5095896;28;20123;-73
2022/12/30 11:31:41;;;;;;;3.63;1.10;;;9.40;99.90;;;;;;5095751;28;20522;-73
2022/12/30 11:34:19;;;;;;;2.15;0.90;;;9.40;99.90;;;;;;5096004;28;20024;-73
2022/12/30 11:36:45;;;;;;;2.90;1.17;;;9.40;99.90;;;;;;5113549;28;20066;-74
2022/12/30 11:39:26;;;;;;;1.08;0.82;;;9.40;99.90;;;;;;5094880;28;20055;-73
2022/12/30 11:41:56;;;;;;;1.88;0.70;;;9.40;99.90;;;;;;5095847;28;20488;-73
2022/12/30 11:44:28;;;;;;;2.00;0.70;;;9.50;99.90;;;;;;5114028;28;20027;-74
2022/12/30 11:47:12;;;;;;;6.78;0.90;;;9.50;99.90;;;;;;5096010;28;20024;-73
2022/12/30 11:49:50;;;;;;;1.92;0.80;;;9.50;99.90;;;;;;5112976;28;20397;-74
2022/12/30 11:52:22;;;;;;;1.20;0.70;;;9.50;99.90;;;;;;5095532;28;20027;-74
2022/12/30 11:55:00;;;;;;;1.00;0.70;;;9.50;99.90;;;;;;5094929;28;20028;-73
2022/12/30 11:57:32;;;;;;;3.40;0.70;;;9.50;99.90;;;;;;5095232;28;20046;-73
2022/12/30 12:00:03;;;;;;;3.80;0.80;;;9.50;99.90;;;;;;5113873;28;20026;-73
2022/12/30 12:02:35;;;;;;;2.30;0.80;;;9.50;99.90;;;;;;5112979;28;20039;-74
2022/12/30 12:05:04;;;;;;;3.33;0.93;;;9.50;99.90;;;;;;5095255;28;20444;-73
2022/12/30 12:07:43;;;;;;;5.15;0.82;;;9.40;99.90;;;;;;5094710;28;20035;-74
2022/12/30 12:10:22;;;;;;;1.00;0.65;;;9.50;99.90;;;;;;5095403;28;20442;-73
2022/12/30 12:13:01;;;;;;;5.55;0.80;;;9.50;99.90;;;;;;5112931;28;20042;-73
2022/12/30 12:15:43;;;;;;;1.58;0.90;;;9.50;99.90;;;;;;5113135;28;20464;-74
2022/12/30 12:18:20;;;;;;;2.92;0.90;;;9.60;99.90;;;;;;5095129;28;20035;-73
2022/12/30 12:21:07;;;;;;;1.33;0.88;;;9.60;99.90;;;;;;5112952;28;20024;-73
2022/12/30 12:23:45;;;;;;;2.72;1.10;;;9.60;99.90;;;;;;5112586;28;20540;-74
2022/12/30 12:26:14;;;;;;;3.63;1.20;;;9.60;99.90;;;;;;5113367;28;20031;-73
2022/12/30 12:28:43;;;;;;;3.55;0.70;;;9.60;99.90;;;;;;5094588;28;20047;-73
2022/12/30 12:32:12;;;;;;;0.88;0.88;;;9.60;99.90;;;;;;5094876;28;20027;-74
2022/12/30 12:34:58;;;;;;;1.27;0.95;;;9.70;99.90;;;;;;4993832;28;20061;-74
2022/12/30 12:37:42;;;;;;;2.70;1.48;;;9.60;99.90;;;;;;5010617;28;20033;-73
2022/12/30 12:40:40;;;;;;;3.40;1.13;;;9.70;99.90;;;;;;5102132;28;20038;-73
2022/12/30 12:43:33;;;;;;;3.30;1.05;;;9.80;99.90;;;;;;5113085;28;20047;-73
2022/12/30 12:45:59;;;;;;;2.10;0.80;;;9.90;99.90;;;;;;5112782;28;20055;-73
2022/12/30 12:48:56;;;;;;;3.30;1.15;;;10.00;99.90;;;;;;5094820;28;20422;-73
2022/12/30 12:51:31;;;;;;;3.05;1.30;;;10.00;99.90;;;;;;5060161;28;20035;-73
2022/12/30 12:54:20;;;;;;;3.03;1.00;;;10.10;99.90;;;;;;5099218;28;20019;-72
2022/12/30 12:57:10;;;;;;;2.70;1.00;;;10.20;99.90;;;;;;5116694;28;20471;-73
2022/12/30 12:59:53;;;;;;;7.72;1.50;;;10.20;99.90;;;;;;5098464;28;20089;-74
2022/12/30 13:02:56;;;;;;;2.28;1.00;;;10.30;99.90;;;;;;5098947;28;20032;-73
2022/12/30 13:05:28;;;;;;;;;;;10.30;99.90;;;;;;5117111;28;20039;-73
2022/12/30 13:08:03;;;;;;;2.35;1.02;;;10.20;99.90;;;;;;5116372;28;19946;-73
2022/12/30 13:10:35;;;;;;;3.80;1.13;;;10.20;99.90;;;;;;5098737;28;20450;-73
2022/12/30 13:13:29;;;;;;;2.10;1.00;;;10.20;99.90;;;;;;5116609;28;20030;-73
2022/12/30 13:16:16;;;;;;;3.67;1.30;;;10.20;99.90;;;;;;5097853;28;20088;-73
2022/12/30 13:18:45;;;;;;;2.78;1.40;;;10.20;99.90;;;;;;5097940;28;20108;-73
2022/12/30 13:21:20;;;;;;;3.78;1.40;;;10.10;99.90;;;;;;5098524;28;20023;-73
2022/12/30 13:23:50;;;;;;;1.50;1.15;;;10.10;99.90;;;;;;5097537;28;20527;-73
2022/12/30 13:26:19;;;;;;;1.77;1.13;;;10.00;99.90;;;;;;5116716;28;20031;-74
2022/12/30 13:28:54;;;;;;;1.55;0.98;;;10.00;99.90;;;;;;5097659;28;20032;-73
2022/12/30 13:31:38;;;;;;;1.80;0.90;;;10.00;99.90;;;;;;5098375;28;20027;-73
2022/12/30 13:34:12;;;;;;;3.90;0.95;;;10.00;99.90;;;;;;5116421;28;20080;-73
2022/12/30 13:36:53;;;;;;;1.25;0.90;;;9.90;99.90;;;;;;5097599;28;20221;-74
2022/12/30 13:39:38;;;;;;;2.63;1.20;;;10.00;99.90;;;;;;5098141;28;20069;-73
2022/12/30 13:42:57;;;;;;;2.90;1.20;;;9.90;99.90;;;;;;5097964;28;20028;-73
2022/12/30 13:45:33;;;;;;;1.98;0.90;;;10.00;99.90;;;;;;5013542;28;20034;-73
2022/12/30 13:48:10;;;;;;;2.83;0.73;;;9.90;99.90;;;;;;4997152;28;20505;-73
2022/12/30 13:50:37;;;;;;;1.42;0.90;;;9.90;99.90;;;;;;5085482;28;20036;-73
2022/12/30 13:53:05;;;;;;;1.55;0.80;;;9.90;99.90;;;;;;5097698;28;20540;-73
2022/12/30 13:55:37;;;;;;;3.15;1.00;;;9.90;99.90;;;;;;5097672;28;20046;-73
2022/12/30 13:58:16;;;;;;;1.40;0.82;;;9.90;99.90;;;;;;5097438;28;20036;-73
2022/12/30 14:00:43;;;;;;;1.67;0.60;;;9.80;99.90;;;;;;5097139;28;20028;-74
2022/12/30 14:03:17;;;;;;;1.15;0.80;;;9.90;99.90;;;;;;5115127;28;20057;-73
2022/12/30 14:05:42;;;;;;;2.45;0.90;;;9.90;99.90;;;;;;5096999;28;20465;-73
2022/12/30 14:08:21;;;;;;;1.10;0.80;;;9.90;99.90;;;;;;5097459;28;20032;-73
2022/12/30 14:11:01;;;;;;;2.25;0.90;;;9.90;99.90;;;;;;5096972;28;20024;-74